Time;durP1;ratioP1;P1;durP2;ratioP2;P2;SDS_P1;SDS_P2;PMS_P1;PMS_P2;Temp;Humidity;BMP_temperature;BMP_pressure;BME280_temperature;BME280_humidity;BME280_pressure;Samples;Min_cycle;Max_cycle;Signal;HPM_P1;HPM_P2
2023/04/19 00:02:01;;;;;;;1999.90;999.90;;;;;;;10.17;100.00;98020.38;5134471;27;20023;-75
2023/04/19 00:04:27;;;;;;;1999.90;999.90;;;;;;;10.12;100.00;98009.44;5133111;27;20463;-75
2023/04/19 00:06:52;;;;;;;1999.90;999.90;;;;;;;10.35;100.00;98010.56;5133162;27;20051;-76
2023/04/19 00:09:18;;;;;;;1999.90;999.90;;;;;;;10.44;100.00;98009.63;5133049;27;20039;-75
2023/04/19 00:11:43;;;;;;;1999.90;999.90;;;;;;;10.48;100.00;98010.69;5132984;27;20119;-77
2023/04/19 00:14:08;;;;;;;1999.90;999.90;;;;;;;10.51;100.00;98012.84;5133254;27;20512;-76
2023/04/19 00:16:34;;;;;;;1999.90;999.90;;;;;;;10.54;100.00;98014.97;5133680;27;20028;-76
2023/04/19 00:18:59;;;;;;;1999.90;999.90;;;;;;;10.55;100.00;98016.63;5139270;27;20506;-78
2023/04/19 00:21:25;;;;;;;1999.90;999.90;;;;;;;10.38;100.00;98009.97;5136181;27;20027;-75
2023/04/19 00:23:50;;;;;;;1999.90;999.90;;;;;;;10.37;100.00;98011.91;5132858;27;20057;-75
2023/04/19 00:26:16;;;;;;;1999.90;999.90;;;;;;;10.36;100.00;98006.75;5132499;27;20069;-75
2023/04/19 00:28:41;;;;;;;1999.90;999.90;;;;;;;10.40;100.00;98003.09;5132548;27;20059;-76
2023/04/19 00:31:06;;;;;;;1999.90;999.90;;;;;;;10.40;100.00;98005.06;5132394;27;20053;-75
2023/04/19 00:33:32;;;;;;;1999.90;999.90;;;;;;;10.47;100.00;98003.56;5132323;27;20031;-74
2023/04/19 00:35:57;;;;;;;1999.90;999.90;;;;;;;10.44;100.00;97992.41;5132391;27;20072;-76
2023/04/19 00:38:23;;;;;;;1999.90;999.90;;;;;;;10.43;100.00;98002.53;5132325;27;20110;-75
2023/04/19 00:40:48;;;;;;;1999.90;999.90;;;;;;;10.41;100.00;97999.28;5132155;27;20011;-76
2023/04/19 00:43:18;;;;;;;1999.90;999.90;;;;;;;10.37;100.00;97998.22;5132740;27;20502;-74
2023/04/19 00:45:44;;;;;;;1999.90;999.90;;;;;;;10.29;100.00;97998.06;5132929;27;20031;-74
2023/04/19 00:48:10;;;;;;;1999.90;999.90;;;;;;;10.23;100.00;97991.03;5113805;27;20034;-75
2023/04/19 00:50:35;;;;;;;1999.90;999.90;;;;;;;10.18;100.00;97990.00;5133736;27;20059;-75
2023/04/19 00:53:01;;;;;;;1999.90;999.90;;;;;;;10.20;100.00;97989.72;5135961;27;20027;-80
2023/04/19 00:55:26;;;;;;;1999.90;999.90;;;;;;;10.34;100.00;97990.63;5115098;27;20068;-75
2023/04/19 00:57:52;;;;;;;1999.90;999.90;;;;;;;10.40;100.00;97988.66;5132374;27;20546;-76
2023/04/19 01:00:18;;;;;;;1999.90;999.90;;;;;;;10.38;100.00;97996.31;5131798;27;20031;-74
2023/04/19 01:02:44;;;;;;;1999.90;999.90;;;;;;;10.37;100.00;97990.03;5132127;27;20019;-75
2023/04/19 01:05:10;;;;;;;1999.90;999.90;;;;;;;10.35;100.00;97994.16;5131845;27;20029;-75
2023/04/19 01:07:35;;;;;;;1999.90;999.90;;;;;;;10.30;100.00;97986.84;5131623;27;20383;-75
2023/04/19 01:10:00;;;;;;;1999.90;999.90;;;;;;;10.34;100.00;97990.63;5131843;27;20036;-75
2023/04/19 01:12:26;;;;;;;1999.90;999.90;;;;;;;10.40;100.00;97983.97;5132240;27;20091;-75
2023/04/19 01:14:51;;;;;;;1999.90;999.90;;;;;;;10.44;100.00;97987.75;5131744;27;20023;-75
2023/04/19 01:17:18;;;;;;;1999.90;999.90;;;;;;;10.48;100.00;97983.34;5131777;27;20031;-77
2023/04/19 01:19:43;;;;;;;1999.90;999.90;;;;;;;10.40;100.00;97981.25;5131726;27;20566;-75
2023/04/19 01:22:09;;;;;;;1999.90;999.90;;;;;;;10.31;100.00;97985.72;5113556;27;20117;-76
2023/04/19 01:24:34;;;;;;;1999.90;999.90;;;;;;;10.21;100.00;97975.75;5134530;27;20111;-75
2023/04/19 01:27:01;;;;;;;1999.90;999.90;;;;;;;10.25;100.00;97986.91;5132714;27;20391;-76
2023/04/19 01:29:26;;;;;;;1999.90;999.90;;;;;;;10.37;100.00;97981.03;5131725;28;20019;-76
2023/04/19 01:31:52;;;;;;;1999.90;999.90;;;;;;;10.44;100.00;97982.28;5131697;28;20027;-75
2023/04/19 01:34:19;;;;;;;1999.90;999.90;;;;;;;10.39;100.00;97957.75;5131626;27;20488;-76
2023/04/19 01:36:44;;;;;;;1999.90;999.90;;;;;;;10.44;100.00;97973.25;5131781;27;20026;-75
2023/04/19 01:39:10;;;;;;;1999.90;999.90;;;;;;;10.30;100.00;97975.09;5131687;28;20028;-76
2023/04/19 01:41:36;;;;;;;1999.90;999.90;;;;;;;10.18;100.00;97970.03;5132180;28;20076;-75
2023/04/19 01:44:01;;;;;;;1999.90;999.90;;;;;;;10.14;100.00;97966.28;5131533;27;20031;-76
2023/04/19 01:46:26;;;;;;;1999.90;999.90;;;;;;;10.08;100.00;97973.69;5131262;28;20504;-76
2023/04/19 01:48:52;;;;;;;1999.90;999.90;;;;;;;10.02;100.00;97971.31;5131382;27;20031;-75
2023/04/19 01:51:17;;;;;;;1999.90;999.90;;;;;;;10.00;100.00;97968.03;5131501;27;20093;-75
2023/04/19 01:53:42;;;;;;;1999.90;999.90;;;;;;;9.97;100.00;97966.72;5131458;28;20428;-76
2023/04/19 01:56:08;;;;;;;1999.90;999.90;;;;;;;9.89;100.00;97961.09;5131543;27;20025;-75
2023/04/19 01:58:33;;;;;;;1999.90;999.90;;;;;;;9.85;100.00;97970.94;5131208;27;20027;-75
2023/04/19 02:00:58;;;;;;;1999.90;999.90;;;;;;;9.80;100.00;97960.09;5131483;28;20134;-74
2023/04/19 02:03:24;;;;;;;1999.90;999.90;;;;;;;9.85;100.00;97955.38;5112977;28;20110;-75
2023/04/19 02:05:49;;;;;;;1999.90;999.90;;;;;;;9.90;100.00;97955.31;5129552;28;20592;-75
2023/04/19 02:08:14;;;;;;;1999.90;999.90;;;;;;;9.90;100.00;97954.53;5104134;28;20027;-76
2023/04/19 02:10:40;;;;;;;1999.90;999.90;;;;;;;10.00;100.00;97955.19;5110137;28;20109;-75
2023/04/19 02:13:05;;;;;;;1999.90;999.90;;;;;;;9.98;100.00;97951.13;5121094;28;20034;-75
2023/04/19 02:15:30;;;;;;;1999.90;999.90;;;;;;;9.98;100.00;97951.13;5131116;28;20027;-75
2023/04/19 02:17:56;;;;;;;1999.90;999.90;;;;;;;9.93;100.00;97951.22;5115089;27;20076;-75
2023/04/19 02:20:22;;;;;;;1999.90;999.90;;;;;;;9.84;100.00;97950.19;5135102;27;20064;-75
2023/04/19 02:22:48;;;;;;;1999.90;999.90;;;;;;;9.92;100.00;97944.09;5116307;27;20114;-76
2023/04/19 02:25:14;;;;;;;1999.90;999.90;;;;;;;9.89;100.00;97941.97;5125392;27;20516;-75
2023/04/19 02:27:39;;;;;;;1999.90;999.90;;;;;;;9.92;100.00;97941.38;5117334;28;20045;-76
2023/04/19 02:30:05;;;;;;;1999.90;999.90;;;;;;;9.91;100.00;97928.81;5116359;28;20043;-75
2023/04/19 02:32:31;;;;;;;1999.90;999.90;;;;;;;9.90;100.00;97933.47;5114406;28;20023;-75
2023/04/19 02:34:56;;;;;;;1999.90;999.90;;;;;;;9.91;100.00;97934.28;5114355;28;20134;-75
2023/04/19 02:37:21;;;;;;;1999.90;999.90;;;;;;;9.91;100.00;97929.63;5116080;28;20020;-74
2023/04/19 02:39:47;;;;;;;1999.90;999.90;;;;;;;9.96;100.00;97939.69;5115879;28;20023;-74
2023/04/19 02:42:12;;;;;;;1999.90;999.90;;;;;;;9.99;100.00;97925.44;5116701;28;20052;-74
2023/04/19 02:44:37;;;;;;;1999.90;999.90;;;;;;;9.89;100.00;97917.38;5116211;28;20036;-75
2023/04/19 02:47:03;;;;;;;1999.90;999.90;;;;;;;9.76;100.00;97915.34;5097909;28;20476;-76
2023/04/19 02:49:33;;;;;;;1999.90;999.90;;;;;;;9.76;100.00;97918.06;5116929;28;20027;-81
2023/04/19 02:51:58;;;;;;;1999.90;999.90;;;;;;;9.85;100.00;97919.06;5114221;28;20111;-75
2023/04/19 02:54:24;;;;;;;1999.90;999.90;;;;;;;9.98;100.00;97913.69;5113504;28;20107;-75
2023/04/19 02:56:49;;;;;;;1999.90;999.90;;;;;;;10.01;100.00;97912.31;5112979;27;20468;-74
2023/04/19 02:59:15;;;;;;;1999.90;999.90;;;;;;;9.92;100.00;97911.31;5133352;27;20023;-74
2023/04/19 03:01:40;;;;;;;1999.90;999.90;;;;;;;9.78;100.00;97908.47;5131794;27;20027;-75
2023/04/19 03:04:05;;;;;;;1999.90;999.90;;;;;;;9.90;100.00;97908.88;5133538;27;20459;-75
2023/04/19 03:06:31;;;;;;;1999.90;999.90;;;;;;;9.99;100.00;97909.84;5115154;27;20133;-76
2023/04/19 03:08:56;;;;;;;1999.90;999.90;;;;;;;9.90;100.00;97899.88;5144937;27;20042;-75
2023/04/19 03:11:21;;;;;;;1999.90;999.90;;;;;;;9.87;100.00;97911.38;5153076;27;20729;-76
2023/04/19 03:13:47;;;;;;;1999.90;999.90;;;;;;;9.83;100.00;97900.25;5154604;27;20023;-75
2023/04/19 03:16:12;;;;;;;1999.90;999.90;;;;;;;9.79;100.00;97898.38;5153821;27;20026;-75
2023/04/19 03:18:37;;;;;;;1999.90;999.90;;;;;;;9.87;100.00;97893.06;5153048;27;20019;-75
2023/04/19 03:21:03;;;;;;;1999.90;999.90;;;;;;;9.89;100.00;97884.59;5154209;27;20551;-75
2023/04/19 03:23:29;;;;;;;1999.90;999.90;;;;;;;9.88;100.00;97900.16;5154463;27;20091;-75
2023/04/19 03:25:55;;;;;;;1999.90;999.90;;;;;;;9.85;100.00;97897.19;5154049;27;20022;-76
2023/04/19 03:28:20;;;;;;;1999.90;999.90;;;;;;;9.80;100.00;97889.91;5153711;27;20395;-75
2023/04/19 03:30:45;;;;;;;1999.90;999.90;;;;;;;9.91;100.00;97876.91;5120400;27;20038;-75
2023/04/19 03:33:11;;;;;;;1999.90;999.90;;;;;;;9.90;100.00;97883.50;5133237;27;20035;-75
2023/04/19 03:35:37;;;;;;;1999.90;999.90;;;;;;;9.95;100.00;97886.16;5125136;27;20497;-75
2023/04/19 03:38:02;;;;;;;1999.90;999.90;;;;;;;9.93;100.00;97883.69;5112697;28;20023;-76
2023/04/19 03:40:29;;;;;;;1999.90;999.90;;;;;;;9.84;100.00;97879.16;5112624;28;20456;-75
2023/04/19 03:42:54;;;;;;;1999.90;999.90;;;;;;;9.75;100.00;97881.75;5112940;28;20110;-76
2023/04/19 03:45:20;;;;;;;1999.90;999.90;;;;;;;9.65;100.00;97877.22;5112456;28;20114;-75
2023/04/19 03:47:45;;;;;;;1999.90;999.90;;;;;;;9.67;100.00;97885.13;5120072;27;20017;-75
2023/04/19 03:50:10;;;;;;;1999.90;999.90;;;;;;;9.67;100.00;97885.94;5132815;27;20019;-75
2023/04/19 03:52:36;;;;;;;1999.90;999.90;;;;;;;9.69;100.00;97883.72;5132906;27;20084;-75
2023/04/19 03:55:02;;;;;;;1999.90;999.90;;;;;;;9.72;100.00;97887.78;5128270;27;20028;-76
2023/04/19 03:57:27;;;;;;;1999.90;999.90;;;;;;;9.74;100.00;97884.78;5114750;27;20027;-75
2023/04/19 03:59:52;;;;;;;1999.90;999.90;;;;;;;9.69;100.00;97894.66;5121244;27;20028;-75
2023/04/19 04:02:18;;;;;;;1999.90;999.90;;;;;;;9.74;100.00;97891.06;5112296;28;20487;-74
2023/04/19 04:04:43;;;;;;;1999.90;999.90;;;;;;;9.73;100.00;97885.88;5111867;28;20116;-75
2023/04/19 04:07:08;;;;;;;1999.90;999.90;;;;;;;9.72;100.00;97886.97;5111964;28;20140;-74
2023/04/19 04:09:34;;;;;;;1999.90;999.90;;;;;;;9.70;100.00;97887.28;5093539;28;20142;-75
2023/04/19 04:11:59;;;;;;;1999.90;999.90;;;;;;;9.69;100.00;97889.19;5127868;27;20494;-75
2023/04/19 04:14:24;;;;;;;1999.90;999.90;;;;;;;9.70;100.00;97890.00;5114370;28;20035;-76
2023/04/19 04:16:50;;;;;;;1999.90;999.90;;;;;;;9.73;100.00;97883.97;5129657;27;20405;-75
2023/04/19 04:19:16;;;;;;;1999.90;999.90;;;;;;;9.82;100.00;97881.38;5132495;27;20031;-75
2023/04/19 04:21:42;;;;;;;1999.90;999.90;;;;;;;9.78;100.00;97874.88;5132413;27;20031;-77
2023/04/19 04:24:07;;;;;;;1999.90;999.90;;;;;;;9.81;100.00;97877.03;5132602;27;20027;-75
2023/04/19 04:26:34;;;;;;;1999.90;999.90;;;;;;;9.84;100.00;97880.00;5132103;27;20034;-75
2023/04/19 04:29:02;;;;;;;1999.90;999.90;;;;;;;9.89;100.00;97877.22;5132395;27;20440;-75
2023/04/19 04:31:27;;;;;;;1999.90;999.90;;;;;;;9.84;100.00;97879.16;5132146;27;20398;-77
2023/04/19 04:33:54;;;;;;;1999.90;999.90;;;;;;;9.91;100.00;97879.63;5132381;27;20019;-74
2023/04/19 04:36:19;;;;;;;1999.90;999.90;;;;;;;9.92;100.00;97884.00;5131887;27;20027;-76
2023/04/19 04:38:45;;;;;;;1999.90;999.90;;;;;;;9.95;100.00;97880.69;5131921;27;20382;-74
2023/04/19 04:41:11;;;;;;;1999.90;999.90;;;;;;;9.88;100.00;97877.50;5130656;27;20016;-80
2023/04/19 04:43:37;;;;;;;1999.90;999.90;;;;;;;9.93;100.00;97880.97;5137581;27;20024;-74
2023/04/19 04:46:03;;;;;;;1999.90;999.90;;;;;;;9.97;100.00;97883.94;5141932;27;20083;-77
2023/04/19 04:48:30;;;;;;;1999.90;999.90;;;;;;;9.89;100.00;97877.22;5101802;27;20028;-74
2023/04/19 04:50:55;;;;;;;1999.90;999.90;;;;;;;10.01;100.00;97885.78;5136509;27;20367;-73
2023/04/19 04:53:21;;;;;;;1999.90;999.90;;;;;;;10.07;100.00;97883.81;5136757;27;20118;-78
2023/04/19 04:55:46;;;;;;;1999.90;999.90;;;;;;;10.08;100.00;97885.44;5135674;27;20026;-76
2023/04/19 04:58:11;;;;;;;1999.90;999.90;;;;;;;10.12;100.00;97886.44;5135350;27;20429;-78
2023/04/19 05:00:37;;;;;;;1999.90;999.90;;;;;;;10.12;100.00;97887.28;5137850;27;20067;-83
2023/04/19 05:03:05;;;;;;;1999.90;999.90;;;;;;;10.12;100.00;97889.19;5143021;27;20023;-88
2023/04/19 05:05:32;;;;;;;1999.90;999.90;;;;;;;10.02;100.00;97886.59;5119163;27;20019;-89
2023/04/19 05:07:58;;;;;;;1999.90;999.90;;;;;;;10.00;100.00;97886.88;5144587;27;20524;-87
2023/04/19 05:10:23;;;;;;;1999.90;999.90;;;;;;;10.17;100.00;97880.97;5142232;27;20047;-88
2023/04/19 05:12:49;;;;;;;1999.90;999.90;;;;;;;10.12;100.00;97870.88;5137209;27;20087;-89
2023/04/19 05:15:14;;;;;;;1999.90;999.90;;;;;;;10.14;100.00;97879.66;5139840;27;20031;-82
2023/04/19 05:17:41;;;;;;;1999.90;999.90;;;;;;;10.14;100.00;97865.16;5140723;27;20118;-79
2023/04/19 05:20:08;;;;;;;1999.90;999.90;;;;;;;10.16;100.00;97862.94;5139216;27;20039;-86
2023/04/19 05:22:33;;;;;;;1999.90;999.90;;;;;;;10.16;100.00;97877.41;5135641;27;20030;-85
2023/04/19 05:24:59;;;;;;;1999.90;999.90;;;;;;;10.24;100.00;97866.94;5118968;28;20031;-74
2023/04/19 05:27:24;;;;;;;1999.90;999.90;;;;;;;10.39;100.00;97870.25;5139283;27;20031;-81
2023/04/19 05:29:50;;;;;;;1999.90;999.90;;;;;;;10.42;100.00;97879.78;5146744;27;20087;-84
2023/04/19 05:32:16;;;;;;;1999.90;999.90;;;;;;;10.36;100.00;97868.13;5146724;27;20019;-76
2023/04/19 05:34:41;;;;;;;1999.90;999.90;;;;;;;10.23;100.00;97865.31;5132139;28;20373;-74
2023/04/19 05:37:06;;;;;;;1999.90;999.90;;;;;;;10.48;100.00;97871.22;5129815;28;20034;-74
2023/04/19 05:39:32;;;;;;;1999.90;999.90;;;;;;;10.52;100.00;97863.22;5129708;27;20098;-73
2023/04/19 05:41:57;;;;;;;1999.90;999.90;;;;;;;10.70;100.00;97867.88;5129824;27;20050;-76
2023/04/19 05:44:23;;;;;;;1999.90;999.90;;;;;;;10.51;100.00;97881.56;5131198;27;20023;-74
2023/04/19 05:46:48;;;;;;;1999.90;999.90;;;;;;;10.27;100.00;97856.22;5132273;28;20039;-75
2023/04/19 05:49:13;;;;;;;1999.90;999.90;;;;;;;10.40;100.00;97865.63;5131810;28;20078;-74
2023/04/19 05:51:38;;;;;;;1999.90;999.90;;;;;;;10.68;100.00;97870.88;5113902;27;20515;-75
2023/04/19 05:54:04;;;;;;;1999.90;999.90;;;;;;;10.91;100.00;97874.63;5137297;27;20036;-78
2023/04/19 05:56:29;;;;;;;1999.90;999.90;;;;;;;11.24;100.00;97878.16;5118821;27;20130;-75
2023/04/19 05:58:59;;;;;;;1999.90;999.90;;;;;;;11.13;100.00;97887.66;5119572;27;20070;-76
2023/04/19 06:01:25;;;;;;;1999.90;999.90;;;;;;;11.49;100.00;97888.66;5119522;27;20443;-75
2023/04/19 06:03:53;;;;;;;1999.90;999.90;;;;;;;11.89;100.00;97886.25;5139055;27;20035;-79
2023/04/19 06:06:20;;;;;;;1999.90;999.90;;;;;;;12.17;100.00;97887.84;5138650;27;20110;-78
2023/04/19 06:08:45;;;;;;;1999.90;999.90;;;;;;;12.64;100.00;97895.56;5137439;27;20027;-75
2023/04/19 06:11:11;;;;;;;1999.90;999.90;;;;;;;13.25;100.00;97896.84;5119668;27;20023;-74
2023/04/19 06:13:36;;;;;;;1999.90;999.90;;;;;;;13.24;100.00;97896.03;5136625;27;20027;-76
2023/04/19 06:16:02;;;;;;;1999.90;999.90;;;;;;;13.21;100.00;97887.59;5117646;27;20584;-76
2023/04/19 06:18:28;;;;;;;1999.90;999.90;;;;;;;13.12;100.00;97897.72;5143422;27;20027;-75
2023/04/19 06:20:53;;;;;;;1999.90;999.90;;;;;;;13.23;100.00;97893.59;5135767;27;20120;-74
2023/04/19 06:23:19;;;;;;;1999.90;999.90;;;;;;;13.50;100.00;97885.16;5133790;27;20410;-76
2023/04/19 06:25:44;;;;;;;1999.90;999.90;;;;;;;14.23;100.00;97894.66;5134826;27;20530;-75
2023/04/19 06:28:10;;;;;;;1999.90;999.90;;;;;;;14.07;100.00;97897.03;5116256;27;20372;-75
2023/04/19 06:30:35;;;;;;;1999.90;999.90;;;;;;;13.89;100.00;97887.13;5134798;27;20039;-75
2023/04/19 06:33:00;;;;;;;1999.90;999.90;;;;;;;13.92;100.00;97883.72;5135177;27;20058;-75
2023/04/19 06:35:26;;;;;;;1999.90;999.90;;;;;;;13.87;100.00;97884.72;5137779;27;20443;-76
2023/04/19 06:37:51;;;;;;;1999.90;999.90;;;;;;;14.05;100.00;97887.50;5135846;27;20498;-75
2023/04/19 06:40:17;;;;;;;1999.90;999.90;;;;;;;13.94;100.00;97882.28;5134423;27;20030;-74
2023/04/19 06:42:42;;;;;;;1999.90;999.90;;;;;;;14.10;100.00;97885.41;5135138;27;20459;-75
2023/04/19 06:45:08;;;;;;;1999.90;999.90;;;;;;;13.99;100.00;97877.78;5135119;27;20031;-75
2023/04/19 06:47:33;;;;;;;1999.90;999.90;;;;;;;14.06;100.00;97880.88;5134669;27;20019;-75
2023/04/19 06:49:59;;;;;;;1999.90;999.90;;;;;;;14.25;100.00;97886.91;5134887;27;20387;-74
2023/04/19 06:52:24;;;;;;;1999.90;999.90;;;;;;;14.54;100.00;97889.88;5135033;27;20023;-75
2023/04/19 06:54:50;;;;;;;1999.90;999.90;;;;;;;14.52;100.00;97881.16;5134607;27;20380;-74
2023/04/19 06:57:16;;;;;;;1999.90;999.90;;;;;;;14.85;100.00;97882.28;5134456;27;20034;-74
2023/04/19 06:59:42;;;;;;;1999.90;999.90;;;;;;;15.06;100.00;97887.13;5134246;27;20032;-75
2023/04/19 07:02:08;;;;;;;1999.90;999.90;;;;;;;15.33;100.00;97889.50;5115811;27;20034;-75
2023/04/19 07:04:33;;;;;;;1999.90;999.90;;;;;;;15.50;100.00;97884.00;5133204;27;20046;-74
2023/04/19 07:06:59;;;;;;;1999.90;999.90;;;;;;;16.17;100.00;97880.44;5134261;27;20464;-75
2023/04/19 07:09:25;;;;;;;1999.90;999.90;;;;;;;16.22;100.00;97896.81;5134023;27;20407;-75
2023/04/19 07:11:51;;;;;;;1999.90;999.90;;;;;;;15.88;100.00;97879.28;5133947;27;20026;-75
2023/04/19 07:14:18;;;;;;;1999.90;999.90;;;;;;;15.35;100.00;97889.97;5134291;27;20134;-75
2023/04/19 07:16:44;;;;;;;1999.90;999.90;;;;;;;15.35;100.00;97887.22;5134325;27;20035;-76
2023/04/19 07:19:12;;;;;;;1999.90;999.90;;;;;;;15.63;100.00;97882.97;5134091;27;20454;-75
2023/04/19 07:21:38;;;;;;;1999.90;999.90;;;;;;;16.47;99.96;97888.41;5133986;27;20160;-73
2023/04/19 07:24:07;;;;;;;1999.90;999.90;;;;;;;17.61;90.40;97888.72;5133916;27;20106;-74
2023/04/19 07:26:33;;;;;;;1999.90;999.90;;;;;;;18.16;79.49;97879.91;5115295;27;20367;-73
2023/04/19 07:28:59;;;;;;;1999.90;999.90;;;;;;;19.74;66.81;97882.19;5133706;27;20020;-75
2023/04/19 07:31:26;;;;;;;1999.90;999.90;;;;;;;19.64;62.66;97882.72;5133650;27;20505;-74
2023/04/19 07:33:51;;;;;;;1999.90;999.90;;;;;;;19.92;61.20;97877.91;5133744;27;20391;-75
2023/04/19 07:36:17;;;;;;;1999.90;999.90;;;;;;;19.19;61.94;97871.94;5133853;27;20023;-75
2023/04/19 07:38:42;;;;;;;1999.90;999.90;;;;;;;17.54;65.57;97871.03;5133591;27;20027;-74
2023/04/19 07:41:08;;;;;;;1999.90;999.90;;;;;;;17.83;64.39;97868.09;5133548;27;20039;-75
2023/04/19 07:43:34;;;;;;;1999.90;999.90;;;;;;;17.11;68.52;97860.41;5115159;27;20122;-75
2023/04/19 07:46:00;;;;;;;1999.90;999.90;;;;;;;17.81;65.09;97864.06;5134312;27;20054;-75
2023/04/19 07:48:25;;;;;;;1999.90;999.90;;;;;;;18.62;62.06;97867.50;5115115;27;20114;-75
2023/04/19 07:50:51;;;;;;;1999.90;999.90;;;;;;;20.16;55.40;97871.34;5133312;27;20106;-73
2023/04/19 07:53:17;;;;;;;1999.90;999.90;;;;;;;19.89;52.47;97861.94;5133350;27;20107;-74
2023/04/19 07:55:42;;;;;;;1999.90;999.90;;;;;;;19.86;54.27;97857.09;5133537;27;20019;-74
2023/04/19 07:58:07;;;;;;;1999.90;999.90;;;;;;;19.59;53.66;97864.34;5133325;27;20027;-74
2023/04/19 08:00:36;;;;;;;1999.90;999.90;;;;;;;20.41;54.67;97858.88;5117274;27;20031;-75
2023/04/19 08:03:02;;;;;;;1999.90;999.90;;;;;;;21.98;47.73;97861.72;5134871;27;20019;-75
2023/04/19 08:05:30;;;;;;;1999.90;999.90;;;;;;;23.51;43.29;97862.72;5132966;27;20037;-75
2023/04/19 08:07:56;;;;;;;1999.90;999.90;;;;;;;24.50;40.46;97861.63;5132964;27;20022;-74
2023/04/19 08:10:22;;;;;;;1999.90;999.90;;;;;;;25.52;38.77;97875.41;5132765;27;20047;-76
2023/04/19 08:12:48;;;;;;;1999.90;999.90;;;;;;;25.79;37.06;97875.88;5133169;27;20053;-75
2023/04/19 08:15:14;;;;;;;1999.90;999.90;;;;;;;27.38;33.67;97867.28;5133058;27;20450;-75
2023/04/19 08:17:41;;;;;;;1999.90;999.90;;;;;;;26.39;34.92;97864.72;5132580;27;20055;-75
2023/04/19 08:20:08;;;;;;;1999.90;999.90;;;;;;;27.78;32.49;97863.09;5114479;27;20034;-75
2023/04/19 08:22:33;;;;;;;1999.90;999.90;;;;;;;27.36;31.62;97875.34;5132778;27;20015;-75
2023/04/19 08:24:58;;;;;;;1999.90;999.90;;;;;;;28.04;30.92;97867.34;5135202;27;20095;-75
2023/04/19 08:27:25;;;;;;;1999.90;999.90;;;;;;;28.63;29.91;97877.31;5139902;27;20260;-76
2023/04/19 08:29:51;;;;;;;1999.90;999.90;;;;;;;27.63;30.45;97867.19;5132690;27;20271;-76
2023/04/19 08:32:16;;;;;;;1999.90;999.90;;;;;;;26.08;32.61;97854.28;5132570;27;20031;-75
2023/04/19 08:34:41;;;;;;;1999.90;999.90;;;;;;;26.42;32.41;97854.69;5132312;27;20018;-76
2023/04/19 08:37:07;;;;;;;1999.90;999.90;;;;;;;26.57;31.54;97848.66;5132492;27;20023;-75
2023/04/19 08:39:33;;;;;;;1999.90;999.90;;;;;;;26.78;31.46;97858.25;5132309;27;20615;-75
2023/04/19 08:42:11;;;;;;;1999.90;999.90;;;;;;;28.42;29.33;97852.19;5132417;27;20079;-75
2023/04/19 08:44:38;;;;;;;1999.90;999.90;;;;;;;27.75;29.46;97849.06;5132315;27;20031;-77
2023/04/19 08:47:05;;;;;;;1999.90;999.90;;;;;;;26.95;31.16;97843.38;5132578;27;20034;-74
2023/04/19 08:49:35;;;;;;;1999.90;999.90;;;;;;;27.22;30.17;97847.31;5131932;27;20075;-72
2023/04/19 08:52:01;;;;;;;1999.90;999.90;;;;;;;26.33;31.13;97832.66;5132207;27;20026;-72
2023/04/19 08:54:30;;;;;;;1999.90;999.90;;;;;;;25.81;31.96;97819.41;5131856;27;20023;-74
2023/04/19 08:56:58;;;;;;;1999.90;999.90;;;;;;;24.75;33.03;97828.19;5132150;27;20034;-74
2023/04/19 08:59:23;;;;;;;1999.90;999.90;;;;;;;24.10;33.93;97819.75;5131923;27;20029;-74
2023/04/19 09:01:49;;;;;;;1999.90;999.90;;;;;;;23.16;36.37;97806.44;5113331;27;20118;-74
2023/04/19 09:04:14;;;;;;;1999.90;999.90;;;;;;;22.31;38.32;97802.50;5131765;27;20263;-74
2023/04/19 09:06:40;;;;;;;1999.90;999.90;;;;;;;21.75;39.57;97786.47;5131907;27;20043;-74
2023/04/19 09:09:20;;;;;;;1999.90;999.90;;;;;;;20.50;42.58;97787.22;5131675;27;20088;-75
2023/04/19 09:11:46;;;;;;;1999.90;999.90;;;;;;;21.55;40.12;97792.50;5131691;27;20027;-75
2023/04/19 09:14:14;;;;;;;1999.90;999.90;;;;;;;22.47;38.23;97793.97;5132012;27;20042;-74
2023/04/19 09:16:40;;;;;;;1999.90;999.90;;;;;;;23.04;36.50;97792.75;5132321;27;20364;-74
2023/04/19 09:19:07;;;;;;;1999.90;999.90;;;;;;;23.35;36.14;97783.91;5131511;27;20023;-76
2023/04/19 09:21:35;;;;;;;1999.90;999.90;;;;;;;22.55;37.22;97785.34;5131807;27;20035;-76
2023/04/19 09:24:01;;;;;;;1999.90;999.90;;;;;;;23.33;36.78;97784.31;5131668;27;20024;-75
2023/04/19 09:26:28;;;;;;;1999.90;999.90;;;;;;;23.42;35.23;97776.47;5132631;27;20095;-75
2023/04/19 09:29:03;;;;;;;1999.90;999.90;;;;;;;23.55;34.42;97787.34;5131318;27;20047;-77
2023/04/19 09:31:30;;;;;;;1999.90;999.90;;;;;;;25.65;32.37;97771.34;5113112;28;20490;-75
2023/04/19 09:33:55;;;;;;;1999.90;999.90;;;;;;;26.94;30.18;97782.84;5131285;28;20117;-76
2023/04/19 09:36:29;;;;;;;1999.90;999.90;;;;;;;27.71;28.90;97787.22;5131620;27;20062;-75
2023/04/19 09:38:55;;;;;;;1999.90;999.90;;;;;;;27.33;29.14;97779.81;5131523;27;20020;-72
2023/04/19 09:41:20;;;;;;;1999.90;999.90;;;;;;;27.44;28.48;97778.56;5113104;27;20364;-72
2023/04/19 09:43:46;;;;;;;1999.90;999.90;;;;;;;26.09;30.19;97771.75;5131638;28;20079;-73
2023/04/19 09:46:32;;;;;;;1999.90;999.90;;;;;;;24.98;31.43;97774.75;5131745;28;20050;-77
2023/04/19 09:49:16;;;;;;;1999.90;999.90;;;;;;;26.63;28.19;97768.44;5112869;28;20394;-73
2023/04/19 09:51:43;;;;;;;1999.90;999.90;;;;;;;25.25;30.48;97762.03;5131398;27;20027;-75
2023/04/19 09:54:10;;;;;;;1999.90;999.90;;;;;;;26.75;27.45;97766.44;5131490;28;20031;-74
2023/04/19 09:56:36;;;;;;;1999.90;999.90;;;;;;;26.54;28.87;97750.44;5131179;27;20087;-73
2023/04/19 09:59:02;;;;;;;1999.90;999.90;;;;;;;27.30;27.46;97753.34;5131316;28;20049;-73
2023/04/19 10:01:34;;;;;;;1999.90;999.90;;;;;;;27.32;27.72;97756.53;5131185;28;20475;-73
2023/04/19 10:04:00;;;;;;;1999.90;999.90;;;;;;;27.57;26.54;97750.78;5131367;27;20084;-74
2023/04/19 10:06:26;;;;;;;1999.90;999.90;;;;;;;27.53;26.62;97748.00;5131244;27;20030;-73
2023/04/19 10:08:54;;;;;;;1999.90;999.90;;;;;;;24.93;29.45;97744.38;5131020;28;20411;-72
2023/04/19 10:11:21;;;;;;;1999.90;999.90;;;;;;;24.79;29.59;97745.06;5131153;27;20118;-74
2023/04/19 10:13:49;;;;;;;1999.90;999.90;;;;;;;23.83;31.53;97742.91;5131368;28;20030;-74
2023/04/19 10:16:15;;;;;;;1999.90;999.90;;;;;;;24.91;29.90;97738.34;5131509;27;20023;-75
2023/04/19 10:18:41;;;;;;;1999.90;999.90;;;;;;;24.17;30.55;97733.19;5131103;28;20038;-75
2023/04/19 10:21:09;;;;;;;1999.90;999.90;;;;;;;23.26;32.23;97724.81;5130985;28;20019;-75
2023/04/19 10:23:36;;;;;;;1999.90;999.90;;;;;;;22.03;34.86;97719.28;5131115;28;20066;-74
2023/04/19 10:26:01;;;;;;;1999.90;999.90;;;;;;;22.28;34.43;97714.88;5131157;27;20060;-75
2023/04/19 10:28:28;;;;;;;1999.90;999.90;;;;;;;21.91;35.31;97707.56;5130897;27;20104;-75
2023/04/19 10:30:59;;;;;;;1999.90;999.90;;;;;;;21.09;36.00;97689.50;5131286;27;20027;-75
2023/04/19 10:33:30;;;;;;;1999.90;999.90;;;;;;;21.19;36.57;97697.25;5114289;28;20386;-75
2023/04/19 10:35:58;;;;;;;1999.90;999.90;;;;;;;20.79;37.78;97694.09;5136489;27;20023;-74
2023/04/19 10:38:40;;;;;;;1999.90;999.90;;;;;;;21.08;37.23;97690.66;5133669;27;20023;-75
2023/04/19 10:41:10;;;;;;;1999.90;999.90;;;;;;;20.48;38.24;97697.06;5134696;27;20443;-76
2023/04/19 10:43:38;;;;;;;1999.90;999.90;;;;;;;20.22;36.67;97684.59;5134558;27;20023;-74
2023/04/19 10:46:07;;;;;;;1999.90;999.90;;;;;;;20.35;37.06;97681.69;5134645;27;20119;-74
2023/04/19 10:48:37;;;;;;;1999.90;999.90;;;;;;;19.62;39.75;97672.16;5137605;27;20031;-75